createdAt,value
2023-02-22T00:04:35.595Z,100924.16
2023-02-22T00:07:02.244Z,100924.34
2023-02-22T00:09:31.685Z,100923.75
2023-02-22T00:11:58.740Z,100919.91
2023-02-22T00:14:31.115Z,100920.72
2023-02-22T00:16:59.532Z,100915.69
2023-02-22T00:19:28.923Z,100926.06
2023-02-22T00:21:59.898Z,100923.94
2023-02-22T00:24:32.988Z,100920.13
2023-02-22T00:27:03.424Z,100915.31
2023-02-22T00:29:37.727Z,100908.44
2023-02-22T00:32:04.686Z,100919.66
2023-02-22T00:34:31.801Z,100914.22
2023-02-22T00:37:12.063Z,100911.44
2023-02-22T00:39:45.231Z,100912.31
2023-02-22T00:42:14.526Z,100908.66
2023-02-22T00:44:45.361Z,100908.81
2023-02-22T00:47:14.352Z,100909.25
2023-02-22T00:49:47.176Z,100910.09
2023-02-22T00:52:13.812Z,100910.75
2023-02-22T00:54:45.948Z,100904.03
2023-02-22T00:57:13.244Z,100911.63
2023-02-22T00:59:42.390Z,100907.03
2023-02-22T01:02:09.503Z,100911.22
2023-02-22T01:04:36.575Z,100903.63
2023-02-22T01:07:03.465Z,100901.91
2023-02-22T01:09:34.904Z,100894.84
2023-02-22T01:12:03.021Z,100899.22
2023-02-22T01:14:32.714Z,100895.09
2023-02-22T01:16:59.491Z,100896.13
2023-02-22T01:19:26.207Z,100901.78
2023-02-22T01:21:52.930Z,100900.84
2023-02-22T01:24:19.774Z,100904.28
2023-02-22T01:26:53.525Z,100897.00
2023-02-22T01:29:21.205Z,100903.28
2023-02-22T01:31:56.365Z,100895.28
2023-02-22T01:34:26.050Z,100908.31
2023-02-22T01:36:52.844Z,100904.78
2023-02-22T01:39:19.564Z,100894.00
2023-02-22T01:41:46.429Z,100899.13
2023-02-22T01:44:25.028Z,100900.84
2023-02-22T01:46:51.699Z,100896.56
2023-02-22T01:49:18.631Z,100899.44
2023-02-22T01:51:53.085Z,100897.00
2023-02-22T01:54:38.548Z,100900.00
2023-02-22T01:57:20.023Z,100896.16
2023-02-22T02:00:01.790Z,100888.22
2023-02-22T02:02:31.881Z,100884.06
2023-02-22T02:04:59.254Z,100888.06
2023-02-22T02:07:26.730Z,100882.25
2023-02-22T02:10:07.642Z,100884.47
2023-02-22T02:12:37.192Z,100877.47
2023-02-22T02:15:34.355Z,100879.31
2023-02-22T02:18:13.532Z,100876.59
2023-02-22T02:21:34.912Z,100864.03
2023-02-22T02:24:52.320Z,100871.31
2023-02-22T02:27:34.257Z,100865.13
2023-02-22T02:30:38.117Z,100867.25
2023-02-22T02:33:38.848Z,100876.59
2023-02-22T02:36:29.622Z,100875.47
2023-02-22T02:39:36.706Z,100872.50
2023-02-22T02:42:16.284Z,100874.09
2023-02-22T02:45:11.708Z,100870.59
2023-02-22T02:47:53.798Z,100866.78
2023-02-22T02:50:35.026Z,100878.84
2023-02-22T02:53:08.756Z,100874.19
2023-02-22T02:55:37.615Z,100878.91
2023-02-22T02:58:11.374Z,100880.22
2023-02-22T03:00:42.517Z,100877.91
2023-02-22T03:03:38.626Z,100876.25
2023-02-22T03:06:52.231Z,100874.16
2023-02-22T03:09:54.765Z,100871.75
2023-02-22T03:12:48.702Z,100871.56
2023-02-22T03:15:52.972Z,100869.53
2023-02-22T03:19:08.195Z,100858.13
2023-02-22T03:21:49.836Z,100851.19
2023-02-22T03:24:45.985Z,100851.72
2023-02-22T03:27:27.965Z,100846.13
2023-02-22T03:30:07.754Z,100840.59
2023-02-22T03:32:49.296Z,100841.44
2023-02-22T03:35:26.361Z,100847.63
2023-02-22T03:38:05.387Z,100851.91
2023-02-22T03:40:45.530Z,100843.88
2023-02-22T03:43:24.880Z,100845.59
2023-02-22T03:45:53.205Z,100849.97
2023-02-22T03:48:37.808Z,100848.16
2023-02-22T03:51:05.728Z,100844.44
2023-02-22T03:53:38.385Z,100848.56
2023-02-22T03:56:13.710Z,100844.72
2023-02-22T03:58:49.970Z,100842.78
2023-02-22T04:01:18.005Z,100846.31
2023-02-22T04:03:44.774Z,100846.31
2023-02-22T04:06:11.843Z,100849.13
2023-02-22T04:08:38.916Z,100842.28
2023-02-22T04:11:05.942Z,100846.66
2023-02-22T04:13:33.901Z,100843.22
2023-02-22T04:16:00.719Z,100844.09
2023-02-22T04:18:32.721Z,100842.91
2023-02-22T04:20:59.406Z,100842.03
2023-02-22T04:23:29.032Z,100842.91
2023-02-22T04:25:55.797Z,100840.97
2023-02-22T04:28:22.887Z,100842.78
2023-02-22T04:30:49.624Z,100844.53
2023-02-22T04:33:19.416Z,100840.88
2023-02-22T04:35:46.171Z,100842.69
2023-02-22T04:38:12.802Z,100838.28
2023-02-22T04:40:43.956Z,100839.16
2023-02-22T04:43:10.668Z,100838.19
2023-02-22T04:45:38.761Z,100839.91
2023-02-22T04:48:08.275Z,100834.34
2023-02-22T04:50:45.202Z,100833.38
2023-02-22T04:53:14.762Z,100835.50
2023-02-22T04:55:44.579Z,100838.78
2023-02-22T04:58:11.324Z,100834.19
2023-02-22T05:00:44.243Z,100836.53
2023-02-22T05:03:13.761Z,100838.84
2023-02-22T05:05:46.503Z,100836.06
2023-02-22T05:08:13.184Z,100843.75
2023-02-22T05:10:41.944Z,100847.28
2023-02-22T05:13:09.814Z,100846.31
2023-02-22T05:15:44.012Z,100851.53
2023-02-22T05:18:10.746Z,100844.41
2023-02-22T05:20:43.103Z,100847.91
2023-02-22T05:23:09.772Z,100845.34
2023-02-22T05:25:47.938Z,100842.69
2023-02-22T05:28:19.406Z,100843.66
2023-02-22T05:30:48.652Z,100841.44
2023-02-22T05:33:15.742Z,100846.66
2023-02-22T05:35:46.253Z,100838.66
2023-02-22T05:38:15.214Z,100841.19
2023-02-22T05:40:45.021Z,100843.00
2023-02-22T05:43:11.741Z,100848.25
2023-02-22T05:45:48.544Z,100845.47
2023-02-22T05:48:15.350Z,100844.50
2023-02-22T05:50:45.155Z,100847.06
2023-02-22T05:53:11.934Z,100847.19
2023-02-22T05:55:46.429Z,100849.22
2023-02-22T05:58:13.270Z,100841.44
2023-02-22T06:00:41.792Z,100845.28
2023-02-22T06:46:35.669Z,100843.34
2023-02-22T06:51:47.726Z,100841.75
2023-02-22T06:54:15.172Z,100844.34
2023-02-22T06:56:45.268Z,100836.31
2023-02-22T06:59:12.329Z,100845.81
2023-02-22T07:01:45.175Z,100845.88
2023-02-22T07:04:11.834Z,100846.06
2023-02-22T07:06:49.780Z,100846.44
2023-02-22T07:09:19.042Z,100848.78
2023-02-22T07:11:49.841Z,100854.53
2023-02-22T07:14:19.423Z,100851.75
2023-02-22T07:16:47.655Z,100851.81
2023-02-22T07:19:17.336Z,100857.44
2023-02-22T07:21:52.397Z,100849.69
2023-02-22T07:24:19.203Z,100859.06
2023-02-22T07:26:45.893Z,100857.28
2023-02-22T07:29:12.556Z,100857.41
2023-02-22T07:31:44.851Z,100866.94
2023-02-22T07:34:13.016Z,100864.50
2023-02-22T07:36:50.875Z,100862.31
2023-02-22T07:39:17.687Z,100858.31
2023-02-22T07:41:47.288Z,100862.44
2023-02-22T07:44:14.003Z,100861.09
2023-02-22T07:46:48.854Z,100860.38
2023-02-22T07:49:16.088Z,100864.41
2023-02-22T07:51:49.073Z,100861.72
2023-02-22T07:54:15.813Z,100865.88
2023-02-22T07:56:49.287Z,100864.16
2023-02-22T07:59:16.642Z,100871.97
2023-02-22T08:01:50.988Z,100865.50
2023-02-22T08:04:17.533Z,100870.03
2023-02-22T08:06:46.283Z,100864.41
2023-02-22T08:09:13.007Z,100858.41
2023-02-22T08:11:43.751Z,100861.50
2023-02-22T08:14:17.319Z,100862.25
2023-02-22T08:16:46.530Z,100857.59
2023-02-22T08:19:13.177Z,100848.72
2023-02-22T08:21:45.442Z,100860.28
2023-02-22T08:24:12.195Z,100853.81
2023-02-22T08:26:51.602Z,100859.34
2023-02-22T08:29:18.294Z,100863.34
2023-02-22T08:31:53.989Z,100856.03
2023-02-22T08:34:20.831Z,100856.38
2023-02-22T08:36:50.621Z,100855.16
2023-02-22T08:39:17.484Z,100851.75
2023-02-22T08:41:53.236Z,100857.38
2023-02-22T08:44:20.020Z,100843.69
2023-02-22T08:46:49.758Z,100846.72
2023-02-22T08:49:16.490Z,100848.44
2023-02-22T08:51:46.375Z,100848.78
2023-02-22T08:54:24.553Z,100841.63
2023-02-22T08:56:51.469Z,100841.34
2023-02-22T08:59:18.246Z,100844.50
2023-02-22T09:01:45.070Z,100843.53
2023-02-22T09:04:14.142Z,100839.75
2023-02-22T09:06:52.198Z,100842.88
2023-02-22T09:09:21.462Z,100844.97
2023-02-22T09:11:51.462Z,100831.16
2023-02-22T09:14:19.603Z,100827.88
2023-02-22T09:16:46.525Z,100825.31
2023-02-22T09:19:15.588Z,100822.13
2023-02-22T09:21:45.435Z,100819.44
2023-02-22T09:24:17.878Z,100813.56
2023-02-22T09:26:53.281Z,100823.03
2023-02-22T09:29:23.532Z,100819.00
2023-02-22T09:31:59.323Z,100817.38
2023-02-22T09:34:37.701Z,100813.41
2023-02-22T09:37:08.637Z,100812.78
2023-02-22T09:39:44.759Z,100807.28
2023-02-22T09:42:26.022Z,100797.72
2023-02-22T09:45:06.162Z,100801.47
2023-02-22T09:47:47.138Z,100804.75
2023-02-22T09:50:51.182Z,100797.63
2023-02-22T09:53:57.875Z,100799.03
2023-02-22T09:56:31.213Z,100796.53
2023-02-22T09:59:12.308Z,100790.72
2023-02-22T10:01:55.274Z,100797.53
2023-02-22T10:04:54.898Z,100787.91
2023-02-22T10:07:59.333Z,100791.34
2023-02-22T10:10:33.969Z,100789.91
2023-02-22T10:13:46.886Z,100786.50
2023-02-22T10:16:59.506Z,100792.66
2023-02-22T10:19:59.924Z,100791.06
2023-02-22T10:22:52.905Z,100793.06
2023-02-22T10:25:35.013Z,100789.56
2023-02-22T10:28:13.462Z,100795.41
2023-02-22T10:30:59.137Z,100784.94
2023-02-22T10:34:17.803Z,100789.47
2023-02-22T10:37:03.300Z,100794.53
2023-02-22T10:39:50.115Z,100787.88
2023-02-22T10:42:29.093Z,100790.91
2023-02-22T10:44:59.589Z,100790.19
2023-02-22T10:47:26.510Z,100785.22
2023-02-22T10:50:03.763Z,100790.16
2023-02-22T10:52:34.628Z,100788.22
2023-02-22T10:55:14.681Z,100791.06
2023-02-22T10:57:59.221Z,100785.81
2023-02-22T11:00:46.727Z,100781.81
2023-02-22T11:03:24.306Z,100777.13
2023-02-22T11:06:00.946Z,100769.38
2023-02-22T11:08:32.905Z,100766.50
2023-02-22T11:11:29.111Z,100760.53
2023-02-22T11:13:57.209Z,100760.63
2023-02-22T11:17:08.370Z,100758.66
2023-02-22T11:19:42.234Z,100752.28
2023-02-22T11:22:32.376Z,100748.28
2023-02-22T11:25:07.649Z,100742.56
2023-02-22T11:27:46.897Z,100740.69
2023-02-22T11:30:35.498Z,100734.03
2023-02-22T11:33:17.445Z,100736.66
2023-02-22T11:35:56.757Z,100732.28
2023-02-22T11:38:43.837Z,100727.50
2023-02-22T11:44:35.795Z,100732.16
2023-02-22T11:47:14.557Z,100728.06
2023-02-22T11:49:53.552Z,100728.00
2023-02-22T11:53:13.862Z,100718.53
2023-02-22T11:56:37.799Z,100713.72
2023-02-22T12:00:16.352Z,100706.06
2023-02-22T12:03:37.369Z,100707.78
2023-02-22T12:06:43.770Z,100697.34
2023-02-22T12:09:38.260Z,100708.03
2023-02-22T12:12:48.183Z,100700.19
2023-02-22T12:15:44.222Z,100694.88
2023-02-22T12:19:24.469Z,100698.06
2023-02-22T12:22:19.177Z,100701.56
2023-02-22T12:25:10.353Z,100696.00
2023-02-22T13:15:18.304Z,100664.16
2023-02-22T13:18:21.932Z,100659.66
2023-02-22T13:30:45.762Z,100651.78
2023-02-22T13:34:09.862Z,100641.13
2023-02-22T13:37:05.866Z,100646.78
2023-02-22T13:40:00.164Z,100642.47
2023-02-22T13:43:13.751Z,100639.41
2023-02-22T13:46:05.032Z,100637.31
2023-02-22T13:49:28.638Z,100638.13
2023-02-22T13:52:24.361Z,100636.78
2023-02-22T13:55:10.840Z,100642.34
2023-02-22T13:57:50.220Z,100645.75
2023-02-22T14:00:23.524Z,100642.91
2023-02-22T14:03:10.944Z,100641.00
2023-02-22T14:05:54.470Z,100645.53
2023-02-22T14:08:31.606Z,100639.28
2023-02-22T14:11:54.251Z,100635.03
2023-02-22T14:14:21.786Z,100630.69
2023-02-22T14:17:29.917Z,100634.38
2023-02-22T14:20:15.693Z,100632.97
2023-02-22T14:22:53.285Z,100633.66
2023-02-22T14:25:43.562Z,100629.81
2023-02-22T14:29:08.431Z,100629.38
2023-02-22T14:32:06.919Z,100634.06
2023-02-22T14:35:09.560Z,100632.25
2023-02-22T14:38:00.531Z,100625.44
2023-02-22T14:40:37.632Z,100624.28
2023-02-22T14:43:20.884Z,100620.84
2023-02-22T14:46:00.171Z,100608.28
2023-02-22T14:48:46.203Z,100607.59
2023-02-22T14:51:45.714Z,100605.50
2023-02-22T14:54:57.920Z,100605.06
2023-02-22T14:58:08.021Z,100606.78
2023-02-22T15:00:48.985Z,100602.69
2023-02-22T15:03:37.241Z,100601.44
2023-02-22T15:06:27.678Z,100597.78
2023-02-22T15:09:31.871Z,100592.25
2023-02-22T15:12:03.302Z,100589.88
2023-02-22T15:14:38.913Z,100582.47
2023-02-22T15:17:25.062Z,100581.19
2023-02-22T15:19:55.287Z,100575.81
2023-02-22T15:22:36.280Z,100584.44
2023-02-22T15:25:09.722Z,100572.72
2023-02-22T15:27:52.646Z,100573.84
2023-02-22T15:30:29.863Z,100583.06
2023-02-22T15:33:04.508Z,100573.88
2023-02-22T15:35:33.988Z,100574.16
2023-02-22T15:38:17.318Z,100567.38
2023-02-22T15:40:46.198Z,100574.59
2023-02-22T15:43:24.278Z,100577.53
2023-02-22T15:45:56.317Z,100575.56
2023-02-22T15:48:26.163Z,100579.69
2023-02-22T15:51:13.956Z,100588.72
2023-02-22T15:53:54.812Z,100593.38
2023-02-22T15:56:30.923Z,100587.28
2023-02-22T15:59:20.576Z,100579.66
2023-02-22T16:01:53.984Z,100578.09
2023-02-22T16:04:30.508Z,100578.66
2023-02-22T16:07:17.829Z,100585.47
2023-02-22T16:09:58.457Z,100584.03
2023-02-22T16:12:28.482Z,100583.63
2023-02-22T16:14:57.017Z,100582.47
2023-02-22T16:17:35.639Z,100578.25
2023-02-22T16:20:11.399Z,100581.47
2023-02-22T16:22:52.282Z,100579.03
2023-02-22T16:25:18.876Z,100582.13
2023-02-22T16:27:49.561Z,100580.03
2023-02-22T16:30:25.027Z,100579.44
2023-02-22T16:32:57.484Z,100575.75
2023-02-22T16:35:29.637Z,100572.09
2023-02-22T16:38:16.897Z,100579.44
2023-02-22T16:40:57.997Z,100575.59
2023-02-22T16:43:33.367Z,100572.44
2023-02-22T16:46:03.090Z,100577.25
2023-02-22T16:48:33.508Z,100571.00
2023-02-22T16:51:14.798Z,100566.94
2023-02-22T16:53:44.748Z,100576.06
2023-02-22T16:56:18.247Z,100584.00
2023-02-22T16:58:50.795Z,100579.03
2023-02-22T17:01:28.018Z,100580.16
2023-02-22T17:03:57.702Z,100577.19
2023-02-22T17:06:24.455Z,100577.19
2023-02-22T17:08:52.128Z,100585.84
2023-02-22T17:11:19.875Z,100572.00
2023-02-22T17:13:51.538Z,100574.81
2023-02-22T17:16:21.061Z,100577.50
2023-02-22T17:18:51.317Z,100581.31
2023-02-22T17:21:18.179Z,100571.72
2023-02-22T17:23:47.958Z,100570.03
2023-02-22T17:26:19.201Z,100564.09
2023-02-22T17:28:48.687Z,100564.66
2023-02-22T17:31:35.349Z,100566.34
2023-02-22T17:34:09.480Z,100565.63
2023-02-22T17:36:36.454Z,100562.38
2023-02-22T17:39:06.751Z,100567.03
2023-02-22T17:41:36.020Z,100572.25
2023-02-22T17:44:03.388Z,100579.03
2023-02-22T17:46:43.415Z,100579.75
2023-02-22T17:49:10.269Z,100583.88
2023-02-22T17:51:49.301Z,100588.97
2023-02-22T17:54:17.988Z,100592.38
2023-02-22T17:56:52.611Z,100589.44
2023-02-22T17:59:19.887Z,100594.50
2023-02-22T18:01:49.591Z,100588.56
2023-02-22T18:04:16.457Z,100583.91
2023-02-22T18:06:43.183Z,100586.59
2023-02-22T18:09:17.766Z,100582.47
2023-02-22T18:11:44.477Z,100587.13
2023-02-22T18:14:12.225Z,100585.44
2023-02-22T18:16:42.041Z,100582.16
2023-02-22T18:19:09.173Z,100583.28
2023-02-22T18:21:38.873Z,100580.03
2023-02-22T18:24:06.471Z,100581.00
2023-02-22T18:26:33.350Z,100580.88
2023-02-22T18:29:01.080Z,100576.34
2023-02-22T18:31:27.819Z,100575.50
2023-02-22T19:51:52.684Z,100549.53
2023-02-22T20:02:37.662Z,100549.09
2023-02-22T21:02:25.132Z,100532.03
2023-02-22T21:04:51.878Z,100530.59
2023-02-22T22:14:08.624Z,100488.31
2023-02-22T22:16:36.860Z,100488.69
2023-02-22T22:19:31.144Z,100488.34
2023-02-22T22:21:58.630Z,100489.59
2023-02-22T22:24:29.503Z,100487.19
2023-02-22T22:26:56.713Z,100493.13
2023-02-22T22:29:28.526Z,100485.47
2023-02-22T22:31:56.201Z,100494.56
2023-02-22T22:34:24.381Z,100496.28
2023-02-22T22:36:51.456Z,100487.72
2023-02-22T22:39:20.933Z,100491.38
2023-02-22T22:41:48.486Z,100487.13
2023-02-22T22:44:22.004Z,100491.63
2023-02-22T22:46:53.444Z,100484.56
2023-02-22T22:49:20.608Z,100488.09
2023-02-22T22:51:47.617Z,100490.75
2023-02-22T22:56:55.527Z,100486.00
2023-02-22T22:59:22.161Z,100490.13
2023-02-22T23:01:48.903Z,100483.66
2023-02-22T23:04:17.238Z,100493.53
2023-02-22T23:06:52.419Z,100485.50
2023-02-22T23:09:31.648Z,100486.34
2023-02-22T23:12:16.659Z,100482.22
2023-02-22T23:14:45.757Z,100479.53
2023-02-22T23:17:26.841Z,100480.66
2023-02-22T23:19:57.283Z,100483.34
2023-02-22T23:22:30.278Z,100485.16
2023-02-22T23:24:59.811Z,100478.09
2023-02-22T23:27:28.016Z,100482.59
2023-02-22T23:30:17.678Z,100480.19
2023-02-22T23:32:53.205Z,100484.84
2023-02-22T23:35:20.048Z,100485.94
2023-02-22T23:37:57.754Z,100489.00
2023-02-22T23:40:28.996Z,100480.50
2023-02-22T23:42:55.840Z,100479.66
2023-02-22T23:45:27.596Z,100486.72
2023-02-22T23:48:00.701Z,100477.69
2023-02-22T23:50:32.953Z,100479.53
2023-02-22T23:53:05.517Z,100479.66
2023-02-22T23:55:47.390Z,100477.81
2023-02-22T23:58:15.852Z,100477.81
